createdAt,value
2022-11-20T00:00:36.625Z,8.10
2022-11-20T00:03:07.399Z,10.10
2022-11-20T00:05:35.892Z,8.03
2022-11-20T00:08:05.766Z,11.07
2022-11-20T00:10:33.548Z,10.97
2022-11-20T00:13:01.191Z,8.50
2022-11-20T00:15:29.180Z,10.03
2022-11-20T00:17:57.482Z,7.97
2022-11-20T00:20:28.648Z,7.43
2022-11-20T00:22:57.228Z,7.13
2022-11-20T00:25:26.929Z,8.07
2022-11-20T00:27:55.306Z,7.57
2022-11-20T00:30:23.900Z,10.00
2022-11-20T00:32:54.974Z,11.20
2022-11-20T00:35:22.893Z,10.13
2022-11-20T00:37:51.474Z,6.70
2022-11-20T00:40:20.867Z,6.37
2022-11-20T00:42:50.207Z,6.53
2022-11-20T00:45:18.191Z,4.13
2022-11-20T00:47:46.070Z,5.40
2022-11-20T00:50:14.050Z,5.43
2022-11-20T00:52:42.336Z,5.53
2022-11-20T00:55:10.343Z,6.33
2022-11-20T00:57:38.349Z,4.50
2022-11-20T01:00:09.582Z,5.20
2022-11-20T01:02:38.762Z,5.00
2022-11-20T01:05:06.970Z,5.77
2022-11-20T01:07:34.864Z,4.90
2022-11-20T01:10:02.959Z,6.00
2022-11-20T01:12:30.875Z,5.70
2022-11-20T01:14:59.265Z,4.07
2022-11-20T01:17:28.768Z,5.93
2022-11-20T01:19:56.736Z,5.00
2022-11-20T01:22:26.843Z,5.07
2022-11-20T01:24:54.620Z,7.50
2022-11-20T01:27:22.389Z,6.23
2022-11-20T01:29:50.366Z,5.47
2022-11-20T01:32:18.486Z,5.93
2022-11-20T01:34:49.258Z,5.70
2022-11-20T01:37:17.402Z,6.83
2022-11-20T01:39:45.122Z,9.00
2022-11-20T01:42:30.271Z,5.33
2022-11-20T01:44:59.436Z,5.57
2022-11-20T01:47:29.680Z,7.30
2022-11-20T01:50:01.335Z,7.20
2022-11-20T01:52:32.871Z,5.57
2022-11-20T01:55:03.535Z,10.13
2022-11-20T01:57:32.346Z,7.47
2022-11-20T02:00:02.383Z,12.47
2022-11-20T02:02:30.449Z,6.10
2022-11-20T02:05:02.989Z,7.20
2022-11-20T02:07:31.058Z,5.93
2022-11-20T02:09:59.338Z,3.80
2022-11-20T02:12:44.339Z,2.90
2022-11-20T02:15:12.411Z,4.70
2022-11-20T02:17:40.510Z,3.63
2022-11-20T02:20:11.287Z,4.77
2022-11-20T02:22:42.995Z,5.90
2022-11-20T02:25:12.670Z,3.40
2022-11-20T02:27:40.950Z,4.77
2022-11-20T02:30:11.996Z,6.77
2022-11-20T02:32:40.128Z,5.13
2022-11-20T02:35:09.094Z,3.40
2022-11-20T02:37:38.992Z,5.60
2022-11-20T02:40:07.500Z,5.10
2022-11-20T02:42:36.632Z,2.77
2022-11-20T02:45:04.959Z,3.13
2022-11-20T02:47:33.836Z,6.57
2022-11-20T02:50:01.735Z,2.63
2022-11-20T02:52:29.700Z,2.00
2022-11-20T02:54:57.700Z,2.60
2022-11-20T02:57:25.608Z,2.43
2022-11-20T02:59:54.720Z,3.33
2022-11-20T03:02:25.085Z,3.30
2022-11-20T03:04:52.868Z,3.00
2022-11-20T03:07:21.059Z,3.00
2022-11-20T03:09:50.057Z,2.10
2022-11-20T03:12:17.966Z,1.20
2022-11-20T03:14:52.597Z,1.50
2022-11-20T03:17:22.937Z,0.77
2022-11-20T03:19:50.898Z,1.23
2022-11-20T03:22:18.675Z,2.57
2022-11-20T03:24:46.410Z,1.50
2022-11-20T03:27:14.678Z,0.87
2022-11-20T03:29:42.464Z,1.93
2022-11-20T03:32:11.731Z,2.20
2022-11-20T03:34:41.281Z,1.60
2022-11-20T03:37:08.989Z,1.70
2022-11-20T03:39:37.083Z,1.20
2022-11-20T03:42:25.052Z,1.87
2022-11-20T03:44:52.864Z,3.97
2022-11-20T03:47:20.604Z,1.77
2022-11-20T03:49:50.072Z,0.70
2022-11-20T03:52:17.923Z,3.90
2022-11-20T03:54:47.969Z,1.97
2022-11-20T03:57:15.769Z,0.73
2022-11-20T03:59:43.729Z,1.67
2022-11-20T04:02:11.469Z,2.33
2022-11-20T04:04:40.663Z,2.53
2022-11-20T04:07:12.168Z,4.20
2022-11-20T04:09:41.286Z,4.80
2022-11-20T04:12:09.009Z,2.23
2022-11-20T04:14:37.239Z,3.37
2022-11-20T04:17:06.034Z,2.23
2022-11-20T04:19:33.852Z,2.30
2022-11-20T04:22:02.219Z,1.10
2022-11-20T04:24:31.856Z,1.80
2022-11-20T04:26:59.850Z,2.30
2022-11-20T04:29:27.986Z,1.83
2022-11-20T04:31:56.334Z,2.60
2022-11-20T04:34:24.175Z,2.47
2022-11-20T04:36:54.536Z,1.57
2022-11-20T04:39:22.536Z,2.37
2022-11-20T04:42:12.596Z,0.80
2022-11-20T04:44:40.286Z,2.13
2022-11-20T04:47:08.129Z,2.50
2022-11-20T04:49:36.365Z,1.03
2022-11-20T04:52:05.638Z,1.47
2022-11-20T04:54:33.847Z,2.77
2022-11-20T04:57:03.686Z,3.20
2022-11-20T04:59:31.646Z,1.30
2022-11-20T05:01:59.699Z,4.87
2022-11-20T05:04:27.642Z,1.07
2022-11-20T05:06:55.509Z,2.50
2022-11-20T05:09:23.557Z,3.40
2022-11-20T05:11:51.876Z,2.40
2022-11-20T05:14:22.931Z,3.13
2022-11-20T05:16:51.599Z,1.63
2022-11-20T05:19:19.800Z,1.20
2022-11-20T05:21:47.781Z,1.47
2022-11-20T05:24:15.667Z,2.50
2022-11-20T05:26:43.817Z,0.90
2022-11-20T05:29:12.918Z,2.70
2022-11-20T05:31:43.360Z,3.17
2022-11-20T05:34:11.329Z,1.13
2022-11-20T05:36:39.082Z,2.40
2022-11-20T05:39:06.913Z,2.63
2022-11-20T05:41:35.600Z,1.03
2022-11-20T05:44:03.722Z,2.80
2022-11-20T05:46:31.663Z,3.93
2022-11-20T05:49:00.905Z,1.23
2022-11-20T05:51:29.191Z,4.13
2022-11-20T05:53:58.615Z,1.43
2022-11-20T05:56:26.751Z,2.57
2022-11-20T05:58:54.546Z,2.47
2022-11-20T06:01:23.920Z,3.47
2022-11-20T06:03:52.133Z,3.30
2022-11-20T06:06:22.666Z,3.03
2022-11-20T06:08:50.772Z,2.80
2022-11-20T06:11:18.813Z,4.30
2022-11-20T06:13:47.356Z,5.17
2022-11-20T06:16:16.922Z,4.97
2022-11-20T06:18:44.820Z,2.50
2022-11-20T06:21:14.186Z,5.63
2022-11-20T06:23:43.548Z,2.77
2022-11-20T06:26:12.544Z,3.07
2022-11-20T06:28:40.487Z,5.70
2022-11-20T06:31:09.153Z,2.30
2022-11-20T06:33:38.327Z,3.73
2022-11-20T06:36:10.681Z,2.50
2022-11-20T06:38:38.935Z,2.57
2022-11-20T06:41:09.005Z,2.10
2022-11-20T06:43:38.026Z,4.20
2022-11-20T06:46:06.268Z,3.13
2022-11-20T06:48:34.483Z,4.50
2022-11-20T06:51:04.776Z,3.03
2022-11-20T06:53:32.950Z,1.83
2022-11-20T06:56:03.565Z,0.77
2022-11-20T06:58:33.912Z,3.97
2022-11-20T07:01:02.188Z,3.00
2022-11-20T07:03:30.314Z,2.23
2022-11-20T07:05:58.661Z,3.87
2022-11-20T07:08:29.001Z,3.20
2022-11-20T07:10:59.592Z,2.50
2022-11-20T07:13:28.076Z,2.93
2022-11-20T07:16:01.235Z,4.30
2022-11-20T07:18:29.286Z,1.63
2022-11-20T07:20:57.538Z,3.20
2022-11-20T07:23:27.920Z,1.17
2022-11-20T07:25:56.994Z,1.30
2022-11-20T07:28:24.778Z,6.07
2022-11-20T07:30:53.450Z,4.03
2022-11-20T07:33:23.316Z,3.23
2022-11-20T07:35:52.202Z,1.37
2022-11-20T07:38:20.337Z,1.13
2022-11-20T07:40:48.612Z,2.07
2022-11-20T07:43:16.914Z,2.10
2022-11-20T07:45:45.328Z,3.13
2022-11-20T07:48:13.172Z,3.17
2022-11-20T07:50:43.143Z,3.23
2022-11-20T07:53:11.133Z,4.20
2022-11-20T07:55:39.166Z,4.23
2022-11-20T07:58:07.220Z,2.47
2022-11-20T08:00:35.308Z,5.87
2022-11-20T08:03:04.876Z,3.43
2022-11-20T08:05:33.236Z,7.73
2022-11-20T08:08:02.612Z,4.67
2022-11-20T08:10:30.680Z,3.90
2022-11-20T08:13:15.867Z,3.00
2022-11-20T08:15:44.293Z,3.37
2022-11-20T08:18:30.594Z,5.17
2022-11-20T08:20:59.803Z,2.77
2022-11-20T08:23:28.957Z,5.23
2022-11-20T08:25:56.676Z,5.10
2022-11-20T08:28:26.280Z,2.77
2022-11-20T08:30:59.645Z,5.33
2022-11-20T08:33:28.157Z,4.77
2022-11-20T08:35:58.431Z,5.63
2022-11-20T08:38:29.362Z,2.43
2022-11-20T08:41:16.704Z,4.67
2022-11-20T08:43:45.056Z,4.93
2022-11-20T08:46:13.375Z,3.07
2022-11-20T08:48:41.823Z,3.00
2022-11-20T08:51:09.997Z,3.27
2022-11-20T08:53:39.354Z,7.27
2022-11-20T08:56:07.988Z,6.50
2022-11-20T08:58:54.860Z,6.80
2022-11-20T09:01:24.852Z,6.13
2022-11-20T09:03:52.829Z,8.13
2022-11-20T09:06:22.199Z,6.57
2022-11-20T09:08:54.056Z,4.00
2022-11-20T09:11:21.921Z,5.70
2022-11-20T09:13:49.767Z,5.03
2022-11-20T09:16:17.795Z,5.00
2022-11-20T09:18:46.115Z,8.13
2022-11-20T09:21:15.313Z,2.90
2022-11-20T09:23:43.506Z,2.90
2022-11-20T09:26:14.000Z,4.47
2022-11-20T09:28:42.113Z,2.30
2022-11-20T09:31:10.458Z,2.83
2022-11-20T09:33:39.150Z,2.07
2022-11-20T09:36:07.524Z,1.57
2022-11-20T09:38:36.313Z,2.40
2022-11-20T09:41:05.785Z,2.80
2022-11-20T09:43:43.498Z,1.70
2022-11-20T09:46:16.089Z,3.23
2022-11-20T09:49:00.103Z,1.63
2022-11-20T09:51:33.167Z,4.13
2022-11-20T09:54:07.741Z,2.33
2022-11-20T09:56:36.277Z,5.97
2022-11-20T09:59:07.559Z,3.90
2022-11-20T10:01:39.384Z,1.60
2022-11-20T10:04:14.680Z,3.53
2022-11-20T10:06:49.361Z,3.30
2022-11-20T10:09:25.406Z,3.40
2022-11-20T10:11:58.190Z,2.63
2022-11-20T10:14:33.782Z,3.93
2022-11-20T10:17:12.763Z,2.90
2022-11-20T10:19:47.514Z,6.70
2022-11-20T10:22:22.609Z,3.37
2022-11-20T10:24:57.396Z,5.27
2022-11-20T10:27:40.290Z,9.80
2022-11-20T10:30:16.049Z,10.60
2022-11-20T10:32:45.734Z,6.87
2022-11-20T10:35:21.156Z,4.93
2022-11-20T10:37:52.794Z,6.93
2022-11-20T10:40:24.180Z,9.17
2022-11-20T10:42:55.084Z,10.00
2022-11-20T10:45:35.788Z,4.77
2022-11-20T10:48:12.755Z,4.90
2022-11-20T10:50:45.044Z,13.43
2022-11-20T10:53:18.854Z,13.70
2022-11-20T10:55:49.014Z,6.50
2022-11-20T10:58:23.641Z,5.80
2022-11-20T11:00:53.005Z,6.53
2022-11-20T11:03:24.935Z,5.03
2022-11-20T11:05:54.379Z,5.03
2022-11-20T11:08:22.209Z,8.90
2022-11-20T11:10:53.907Z,6.57
2022-11-20T11:13:22.661Z,8.10
2022-11-20T11:15:50.789Z,9.97
2022-11-20T11:18:31.861Z,8.17
2022-11-20T11:21:00.443Z,12.60
2022-11-20T11:23:34.021Z,11.50
2022-11-20T11:26:03.409Z,3.50
2022-11-20T11:28:31.418Z,6.77
2022-11-20T11:30:59.699Z,5.67
2022-11-20T11:33:32.448Z,4.23
2022-11-20T11:36:02.413Z,3.73
2022-11-20T11:38:35.384Z,1.33
2022-11-20T11:41:04.274Z,1.03
2022-11-20T11:43:50.308Z,1.53
2022-11-20T11:46:26.840Z,1.40
2022-11-20T11:49:01.251Z,1.97
2022-11-20T11:51:32.865Z,3.23
2022-11-20T11:54:02.710Z,2.20
2022-11-20T11:56:30.854Z,1.70
2022-11-20T11:59:01.679Z,0.80
2022-11-20T12:01:34.222Z,2.87
2022-11-20T12:04:06.742Z,1.80
2022-11-20T12:06:35.364Z,4.17
2022-11-20T12:09:05.138Z,2.13
2022-11-20T12:11:35.194Z,2.27
2022-11-20T12:14:05.898Z,9.03
2022-11-20T12:16:36.400Z,1.60
2022-11-20T12:19:10.220Z,10.87
2022-11-20T12:21:40.821Z,0.80
2022-11-20T12:24:13.103Z,2.67
2022-11-20T12:26:48.050Z,3.83
2022-11-20T12:29:21.997Z,1.23
2022-11-20T12:31:58.362Z,1.63
2022-11-20T12:34:42.860Z,1.57
2022-11-20T12:37:15.675Z,4.00
2022-11-20T12:39:44.495Z,0.67
2022-11-20T12:42:39.920Z,1.83
2022-11-20T12:45:25.034Z,1.87
2022-11-20T12:48:03.079Z,0.73
2022-11-20T12:50:53.207Z,2.87
2022-11-20T12:53:29.365Z,0.97
2022-11-20T12:56:03.242Z,2.53
2022-11-20T12:58:35.399Z,5.53
2022-11-20T13:01:09.031Z,2.33
2022-11-20T13:03:43.878Z,1.53
2022-11-20T13:06:16.488Z,2.57
2022-11-20T13:08:49.661Z,2.10
2022-11-20T13:11:21.302Z,2.33
2022-11-20T13:13:59.990Z,3.23
2022-11-20T13:16:31.568Z,3.63
2022-11-20T13:19:03.930Z,1.30
2022-11-20T13:21:38.760Z,3.93
2022-11-20T13:24:09.222Z,2.83
2022-11-20T13:26:37.944Z,5.43
2022-11-20T13:29:10.864Z,4.60
2022-11-20T13:31:44.006Z,6.83
2022-11-20T13:34:15.151Z,3.53
2022-11-20T13:36:52.908Z,4.07
2022-11-20T13:39:29.338Z,3.87
2022-11-20T13:41:58.184Z,5.10
2022-11-20T13:44:27.977Z,3.93
2022-11-20T13:46:56.266Z,3.03
2022-11-20T13:49:26.719Z,5.90
2022-11-20T13:51:58.629Z,4.90
2022-11-20T13:54:49.804Z,5.47
2022-11-20T13:57:28.222Z,4.00
2022-11-20T14:00:00.651Z,5.37
2022-11-20T14:02:29.873Z,3.43
2022-11-20T14:04:59.373Z,3.53
2022-11-20T14:07:29.688Z,4.03
2022-11-20T14:09:59.414Z,3.20
2022-11-20T14:12:32.464Z,4.87
2022-11-20T14:15:00.691Z,5.23
2022-11-20T14:17:32.720Z,9.77
2022-11-20T14:20:03.685Z,5.73
2022-11-20T14:22:31.581Z,7.30
2022-11-20T14:25:08.376Z,6.33
2022-11-20T14:27:39.197Z,5.63
2022-11-20T14:30:08.584Z,8.50
2022-11-20T14:32:37.249Z,7.73
2022-11-20T14:35:11.869Z,6.93
2022-11-20T14:37:42.465Z,5.33
2022-11-20T14:40:25.018Z,5.00
2022-11-20T14:42:54.566Z,7.63
2022-11-20T14:45:23.183Z,10.80
2022-11-20T14:47:51.596Z,5.27
2022-11-20T14:50:22.085Z,6.27
2022-11-20T14:52:53.380Z,5.93
2022-11-20T14:55:31.943Z,5.60
2022-11-20T14:58:04.621Z,6.97
2022-11-20T15:00:33.914Z,8.60
2022-11-20T15:03:01.626Z,10.10
2022-11-20T15:05:47.102Z,9.80
2022-11-20T15:08:15.087Z,13.73
2022-11-20T15:10:48.006Z,14.67
2022-11-20T15:13:18.463Z,15.40
2022-11-20T15:15:48.313Z,10.57
2022-11-20T15:18:17.231Z,11.73
2022-11-20T15:20:46.141Z,11.43
2022-11-20T15:23:15.127Z,8.10
2022-11-20T15:25:44.167Z,10.63
2022-11-20T15:28:16.999Z,9.33
2022-11-20T15:30:46.402Z,5.67
2022-11-20T15:33:14.993Z,9.00
2022-11-20T15:35:43.013Z,7.43
2022-11-20T15:38:10.734Z,5.93
2022-11-20T15:40:39.845Z,5.97
2022-11-20T15:43:13.457Z,3.70
2022-11-20T15:45:44.142Z,4.20
2022-11-20T15:48:16.579Z,3.30
2022-11-20T15:50:49.334Z,6.37
2022-11-20T15:53:17.600Z,4.43
2022-11-20T15:55:45.716Z,3.80
2022-11-20T15:58:16.752Z,1.73
2022-11-20T16:00:45.570Z,1.70
2022-11-20T16:03:18.003Z,0.67
2022-11-20T16:05:46.401Z,1.20
2022-11-20T16:08:14.571Z,1.70
2022-11-20T16:10:42.846Z,1.90
2022-11-20T16:13:31.525Z,3.57
2022-11-20T16:16:00.756Z,4.03
2022-11-20T16:18:29.871Z,9.97
2022-11-20T16:21:00.327Z,6.93
2022-11-20T16:23:29.540Z,7.17
2022-11-20T16:25:57.503Z,3.70
2022-11-20T16:28:25.754Z,4.70
2022-11-20T16:30:54.014Z,6.30
2022-11-20T16:33:22.377Z,6.63
2022-11-20T16:35:51.772Z,7.93
2022-11-20T16:38:20.189Z,9.27
2022-11-20T16:40:48.089Z,12.57
2022-11-20T16:43:16.298Z,9.83
2022-11-20T16:45:46.087Z,10.87
2022-11-20T16:48:14.239Z,9.20
2022-11-20T16:50:47.492Z,8.57
2022-11-20T16:53:19.851Z,10.57
2022-11-20T16:55:52.757Z,14.40
2022-11-20T16:58:20.453Z,11.97
2022-11-20T17:00:51.646Z,9.87
2022-11-20T17:03:21.243Z,11.30
2022-11-20T17:05:51.585Z,6.97
2022-11-20T17:08:21.071Z,4.80
2022-11-20T17:10:49.489Z,6.87
2022-11-20T17:13:17.454Z,6.03
2022-11-20T17:15:45.776Z,7.30
2022-11-20T17:18:13.719Z,4.57
2022-11-20T17:20:41.476Z,6.50
2022-11-20T17:23:09.449Z,3.07
2022-11-20T17:25:39.968Z,5.13
2022-11-20T17:28:08.032Z,6.43
2022-11-20T17:30:36.322Z,4.07
2022-11-20T17:33:06.348Z,2.90
2022-11-20T17:35:36.793Z,4.80
2022-11-20T17:38:05.187Z,3.50
2022-11-20T17:40:33.443Z,3.93
2022-11-20T17:43:02.914Z,3.07
2022-11-20T17:45:31.327Z,5.67
2022-11-20T17:47:59.410Z,4.20
2022-11-20T17:50:27.214Z,3.57
2022-11-20T17:52:56.201Z,3.47
2022-11-20T17:55:24.652Z,4.93
2022-11-20T17:57:56.927Z,5.87
2022-11-20T18:00:27.180Z,8.40
2022-11-20T18:02:55.385Z,8.47
2022-11-20T18:05:23.184Z,7.17
2022-11-20T18:07:53.597Z,7.67
2022-11-20T18:10:24.841Z,8.47
2022-11-20T18:12:53.990Z,5.60
2022-11-20T18:15:22.200Z,6.07
2022-11-20T18:17:51.944Z,4.20
2022-11-20T18:20:30.224Z,5.13
2022-11-20T18:23:00.250Z,3.33
2022-11-20T18:25:29.691Z,4.73
2022-11-20T18:27:59.315Z,5.03
2022-11-20T18:30:27.458Z,5.40
2022-11-20T18:32:56.741Z,3.80
2022-11-20T18:35:25.014Z,4.03
2022-11-20T18:37:52.790Z,2.87
2022-11-20T18:40:20.520Z,6.63
2022-11-20T18:43:06.110Z,7.20
2022-11-20T18:45:33.937Z,3.20
2022-11-20T18:48:03.613Z,3.17
2022-11-20T18:50:31.375Z,3.10
2022-11-20T18:52:59.417Z,3.47
2022-11-20T18:55:27.286Z,3.40
2022-11-20T18:57:55.238Z,2.00
2022-11-20T19:00:23.370Z,4.53
2022-11-20T19:02:54.373Z,1.83
2022-11-20T19:05:23.769Z,2.30
2022-11-20T19:07:52.732Z,1.80
2022-11-20T19:10:21.179Z,2.20
2022-11-20T19:12:49.532Z,2.93
2022-11-20T19:15:17.522Z,2.37
2022-11-20T19:17:45.442Z,3.40
2022-11-20T19:20:13.595Z,3.53
2022-11-20T19:22:42.908Z,1.90
2022-11-20T19:25:10.895Z,3.30
2022-11-20T19:27:39.502Z,2.13
2022-11-20T19:30:08.805Z,2.80
2022-11-20T19:32:37.292Z,2.80
2022-11-20T19:35:06.614Z,3.30
2022-11-20T19:37:35.287Z,1.73
2022-11-20T19:40:05.508Z,2.27
2022-11-20T19:42:34.215Z,3.57
2022-11-20T19:45:02.314Z,4.77
2022-11-20T19:48:00.689Z,3.33
2022-11-20T19:50:18.406Z,2.83
2022-11-20T19:52:46.217Z,2.13
2022-11-20T19:55:15.543Z,3.37
2022-11-20T19:57:44.024Z,2.97
2022-11-20T20:00:12.512Z,2.80
2022-11-20T20:02:40.483Z,2.77
2022-11-20T20:05:08.976Z,3.80
2022-11-20T20:07:40.539Z,3.67
2022-11-20T20:10:09.664Z,3.27
2022-11-20T20:12:39.118Z,3.60
2022-11-20T20:15:07.743Z,3.97
2022-11-20T20:17:35.667Z,3.20
2022-11-20T20:20:03.642Z,5.00
2022-11-20T20:22:31.609Z,2.30
2022-11-20T20:24:59.832Z,2.37
2022-11-20T20:27:27.919Z,3.97
2022-11-20T20:29:57.904Z,4.53
2022-11-20T20:32:26.407Z,4.20
2022-11-20T20:34:54.857Z,3.90
2022-11-20T20:37:22.617Z,2.90
2022-11-20T20:39:51.316Z,6.00
2022-11-20T20:42:19.169Z,7.03
2022-11-20T20:45:04.580Z,5.00
2022-11-20T20:47:36.329Z,10.50
2022-11-20T20:50:04.239Z,7.80
2022-11-20T20:52:32.188Z,7.30
2022-11-20T20:55:03.162Z,8.40
2022-11-20T20:57:31.623Z,10.00
2022-11-20T20:59:59.986Z,6.27
2022-11-20T21:02:29.102Z,4.20
2022-11-20T21:05:01.943Z,6.40
2022-11-20T21:07:30.472Z,6.03
2022-11-20T21:09:58.780Z,5.47
2022-11-20T21:12:26.524Z,5.03
2022-11-20T21:14:54.787Z,4.53
2022-11-20T21:17:24.132Z,7.73
2022-11-20T21:19:52.063Z,6.07
2022-11-20T21:22:25.104Z,8.50
2022-11-20T21:24:53.908Z,6.00
2022-11-20T21:27:21.773Z,5.90
2022-11-20T21:29:51.657Z,5.23
2022-11-20T21:32:22.457Z,8.20
2022-11-20T21:34:50.268Z,10.53
2022-11-20T21:37:17.962Z,10.40
2022-11-20T21:39:51.948Z,6.43
2022-11-20T21:42:20.020Z,5.90
2022-11-20T21:44:48.125Z,6.63
2022-11-20T21:47:16.200Z,9.37
2022-11-20T21:49:43.954Z,4.83
2022-11-20T21:52:11.976Z,6.70
2022-11-20T21:54:40.046Z,9.43
2022-11-20T21:57:09.426Z,8.30
2022-11-20T21:59:37.774Z,5.53
2022-11-20T22:02:05.970Z,9.23
2022-11-20T22:04:34.046Z,9.73
2022-11-20T22:07:02.279Z,12.27
2022-11-20T22:09:30.057Z,12.30
2022-11-20T22:11:57.988Z,12.03
2022-11-20T22:14:26.450Z,13.93
2022-11-20T22:16:54.697Z,11.53
2022-11-20T22:19:23.086Z,13.07
2022-11-20T22:21:51.791Z,12.37
2022-11-20T22:24:20.433Z,13.43
2022-11-20T22:26:48.482Z,13.47
2022-11-20T22:29:16.871Z,11.10
2022-11-20T22:31:46.542Z,16.80
2022-11-20T22:34:15.534Z,16.43
2022-11-20T22:36:44.294Z,15.27
2022-11-20T22:39:12.003Z,11.73
2022-11-20T22:41:40.106Z,10.40
2022-11-20T22:44:09.893Z,12.10
2022-11-20T22:46:38.339Z,10.53
2022-11-20T22:49:09.074Z,9.93
2022-11-20T22:51:38.573Z,8.47
2022-11-20T22:54:06.784Z,11.10
2022-11-20T22:56:34.576Z,11.63
2022-11-20T22:59:02.774Z,13.63
2022-11-20T23:01:31.148Z,13.30
2022-11-20T23:04:00.259Z,9.57
2022-11-20T23:06:30.444Z,10.70
2022-11-20T23:08:58.130Z,11.23
2022-11-20T23:11:26.733Z,8.13
2022-11-20T23:13:55.578Z,8.57
2022-11-20T23:16:24.736Z,7.50
2022-11-20T23:18:54.348Z,8.70
2022-11-20T23:21:22.668Z,10.93
2022-11-20T23:23:53.417Z,9.07
2022-11-20T23:26:25.107Z,8.47
2022-11-20T23:28:54.915Z,12.80
2022-11-20T23:31:22.712Z,6.70
2022-11-20T23:33:50.766Z,6.00
2022-11-20T23:36:19.196Z,5.63
2022-11-20T23:38:47.007Z,6.77
2022-11-20T23:41:16.452Z,9.80
2022-11-20T23:43:44.528Z,8.30
2022-11-20T23:46:16.513Z,7.60
2022-11-20T23:48:46.061Z,4.87
2022-11-20T23:51:16.504Z,5.90
2022-11-20T23:53:44.283Z,2.97
2022-11-20T23:56:14.657Z,3.70
2022-11-20T23:58:44.261Z,6.37
